createdAt,value
2023-02-05T00:00:12.080Z,-2.8
2023-02-05T00:03:12.657Z,-2.8
2023-02-05T00:06:11.993Z,-2.8
2023-02-05T00:09:11.968Z,-2.8
2023-02-05T00:12:12.001Z,-2.9
2023-02-05T00:15:11.985Z,-2.9
2023-02-05T00:18:11.959Z,-2.8
2023-02-05T00:21:12.030Z,-2.9
2023-02-05T00:24:12.014Z,-2.9
2023-02-05T00:27:12.011Z,-2.9
2023-02-05T00:30:12.007Z,-3
2023-02-05T00:33:11.938Z,-3
2023-02-05T00:36:14.644Z,-3
2023-02-05T00:39:11.966Z,-3
2023-02-05T00:42:11.981Z,-3.1
2023-02-05T00:45:11.999Z,-3.1
2023-02-05T00:51:12.029Z,-3
2023-02-05T00:54:12.081Z,-3
2023-02-05T00:57:11.957Z,-3
2023-02-05T01:00:12.034Z,-2.9
2023-02-05T01:03:12.004Z,-2.8
2023-02-05T01:06:12.103Z,-2.6
2023-02-05T01:09:12.138Z,-2.5
2023-02-05T01:12:12.135Z,-2.3
2023-02-05T01:15:14.120Z,-2.1
2023-02-05T01:18:13.113Z,-2
2023-02-05T01:21:12.072Z,-1.9
2023-02-05T01:24:17.081Z,-1.8
2023-02-05T01:27:12.134Z,-1.6
2023-02-05T01:30:13.818Z,-1.6
2023-02-05T01:33:12.111Z,-1.6
2023-02-05T01:36:13.991Z,-1.6
2023-02-05T01:39:12.071Z,-1.6
2023-02-05T01:42:12.581Z,-1.5
2023-02-05T01:45:11.997Z,-1.6
2023-02-05T01:48:12.240Z,-1.5
2023-02-05T01:51:12.466Z,-1.5
2023-02-05T01:54:12.916Z,-1.5
2023-02-05T01:57:12.290Z,-1.5
2023-02-05T02:00:14.123Z,-1.5
2023-02-05T02:03:12.068Z,-1.5
2023-02-05T02:06:12.016Z,-1.5
2023-02-05T02:09:16.668Z,-1.4
2023-02-05T02:12:12.063Z,-1.5
2023-02-05T02:15:12.192Z,-1.4
2023-02-05T02:18:12.107Z,-1.4
2023-02-05T02:21:12.090Z,-1.4
2023-02-05T02:24:11.949Z,-1.4
2023-02-05T02:27:11.974Z,-1.4
2023-02-05T02:30:12.113Z,-1.5
2023-02-05T02:33:12.073Z,-1.5
2023-02-05T02:36:12.135Z,-1.5
2023-02-05T02:39:12.118Z,-1.5
2023-02-05T02:42:11.933Z,-1.6
2023-02-05T02:45:11.999Z,-1.6
2023-02-05T02:48:11.994Z,-1.6
2023-02-05T02:51:11.926Z,-1.6
2023-02-05T02:54:11.981Z,-1.6
2023-02-05T02:57:11.948Z,-1.6
2023-02-05T03:00:12.130Z,-1.6
2023-02-05T03:03:12.140Z,-1.6
2023-02-05T03:06:12.004Z,-1.6
2023-02-05T03:09:11.968Z,-1.6
2023-02-05T03:12:12.038Z,-1.6
2023-02-05T03:15:12.006Z,-1.6
2023-02-05T03:18:12.170Z,-1.8
2023-02-05T03:21:11.943Z,-1.8
2023-02-05T03:24:11.993Z,-1.8
2023-02-05T03:27:11.947Z,-1.8
2023-02-05T03:30:12.020Z,-1.8
2023-02-05T03:33:12.166Z,-1.8
2023-02-05T03:36:11.987Z,-1.9
2023-02-05T03:39:12.021Z,-1.9
2023-02-05T03:42:12.030Z,-1.9
2023-02-05T03:45:11.930Z,-1.9
2023-02-05T03:48:11.977Z,-1.9
2023-02-05T03:51:11.988Z,-1.9
2023-02-05T03:54:11.910Z,-1.9
2023-02-05T03:57:11.990Z,-1.9
2023-02-05T04:00:12.025Z,-1.8
2023-02-05T04:03:11.986Z,-1.8
2023-02-05T04:06:11.925Z,-1.8
2023-02-05T04:09:12.027Z,-1.8
2023-02-05T04:12:11.956Z,-1.6
2023-02-05T04:15:12.016Z,-1.6
2023-02-05T04:18:11.939Z,-1.5
2023-02-05T04:21:11.958Z,-1.5
2023-02-05T04:24:12.514Z,-1.5
2023-02-05T04:27:11.981Z,-1.4
2023-02-05T04:30:12.092Z,-1.4
2023-02-05T04:33:11.923Z,-1.3
2023-02-05T04:36:12.002Z,-1.3
2023-02-05T04:39:11.988Z,-1.1
2023-02-05T04:42:11.963Z,-1.1
2023-02-05T04:45:12.004Z,-1.1
2023-02-05T04:48:12.187Z,-1.1
2023-02-05T04:51:12.016Z,-1
2023-02-05T04:54:11.988Z,-1
2023-02-05T04:57:11.925Z,-0.9
2023-02-05T05:00:12.164Z,-0.9
2023-02-05T05:03:11.954Z,-0.8
2023-02-05T05:06:11.986Z,-0.8
2023-02-05T05:09:12.001Z,-0.6
2023-02-05T05:12:11.983Z,-0.6
2023-02-05T05:15:11.963Z,-0.6
2023-02-05T05:18:12.008Z,-0.6
2023-02-05T05:21:11.996Z,-0.6
2023-02-05T05:24:12.286Z,-0.5
2023-02-05T05:27:12.000Z,-0.5
2023-02-05T05:30:12.013Z,-0.5
2023-02-05T05:33:11.915Z,-0.4
2023-02-05T05:36:11.958Z,-0.3
2023-02-05T05:39:11.913Z,-0.3
2023-02-05T05:42:12.021Z,-0.1
2023-02-05T05:45:11.967Z,-0.1
2023-02-05T05:48:11.990Z,0
2023-02-05T05:51:11.997Z,0
2023-02-05T05:54:12.024Z,0.1
2023-02-05T05:57:12.074Z,0.1
2023-02-05T06:00:12.106Z,0.2
2023-02-05T06:03:11.940Z,0.2
2023-02-05T06:06:12.027Z,0.4
2023-02-05T06:09:11.954Z,-1.5
2023-02-05T06:12:13.849Z,-1.5
2023-02-05T06:15:12.010Z,-1.5
2023-02-05T06:18:11.914Z,-1.4
2023-02-05T06:21:12.011Z,-1.4
2023-02-05T06:24:12.041Z,-1.4
2023-02-05T06:27:11.978Z,-1.3
2023-02-05T06:30:11.973Z,-1.3
2023-02-05T06:33:11.960Z,-1.3
2023-02-05T06:36:12.042Z,-1.3
2023-02-05T06:39:11.972Z,-1.3
2023-02-05T06:42:11.989Z,-1.1
2023-02-05T06:45:12.364Z,-1.1
2023-02-05T06:48:11.941Z,-1
2023-02-05T06:51:11.924Z,-0.9
2023-02-05T06:54:12.081Z,-0.9
2023-02-05T06:57:12.018Z,-0.9
2023-02-05T07:00:12.210Z,-0.9
2023-02-05T07:03:12.285Z,-0.9
2023-02-05T07:06:12.156Z,-0.9
2023-02-05T07:09:12.080Z,-0.9
2023-02-05T07:12:12.090Z,-0.9
2023-02-05T07:15:12.022Z,-0.9
2023-02-05T07:18:12.066Z,-0.8
2023-02-05T07:21:12.035Z,-0.8
2023-02-05T07:24:12.169Z,-0.8
2023-02-05T07:27:11.982Z,-0.6
2023-02-05T07:30:12.090Z,-0.6
2023-02-05T07:33:12.072Z,-0.5
2023-02-05T07:36:12.120Z,-0.5
2023-02-05T07:39:12.011Z,-0.4
2023-02-05T07:42:12.084Z,-0.3
2023-02-05T07:45:12.041Z,-0.1
2023-02-05T07:48:12.026Z,0
2023-02-05T07:51:12.052Z,0.1
2023-02-05T07:54:12.152Z,0.1
2023-02-05T07:57:14.194Z,0.3
2023-02-05T08:00:12.621Z,0.4
2023-02-05T08:03:12.033Z,0.5
2023-02-05T08:06:12.087Z,0.5
2023-02-05T08:09:12.033Z,0.6
2023-02-05T08:12:12.046Z,0.8
2023-02-05T08:15:12.025Z,1
2023-02-05T08:18:12.016Z,1.3
2023-02-05T08:21:12.090Z,1.4
2023-02-05T08:24:12.032Z,1.6
2023-02-05T08:27:11.984Z,1.8
2023-02-05T08:30:12.101Z,2
2023-02-05T08:33:12.027Z,2.1
2023-02-05T08:36:12.114Z,2.2
2023-02-05T08:39:12.027Z,2.4
2023-02-05T08:42:12.097Z,2.4
2023-02-05T08:45:12.015Z,2.5
2023-02-05T08:48:12.544Z,2.6
2023-02-05T08:51:12.122Z,2.7
2023-02-05T08:54:12.129Z,2.9
2023-02-05T08:57:12.124Z,3
2023-02-05T09:00:12.175Z,3
2023-02-05T09:03:11.962Z,3
2023-02-05T09:06:12.097Z,3.4
2023-02-05T09:09:12.003Z,3.7
2023-02-05T09:12:12.128Z,4.1
2023-02-05T09:15:12.099Z,4.4
2023-02-05T09:18:12.058Z,4.7
2023-02-05T09:21:12.105Z,5.1
2023-02-05T09:24:12.078Z,5.4
2023-02-05T09:27:14.043Z,5.6
2023-02-05T09:30:12.130Z,5.7
2023-02-05T09:33:12.040Z,6
2023-02-05T09:36:12.109Z,6.5
2023-02-05T09:42:12.153Z,5.9
2023-02-05T09:45:12.080Z,5.6
2023-02-05T09:48:12.000Z,5.6
2023-02-05T09:51:12.052Z,5.6
2023-02-05T09:54:12.112Z,5.7
2023-02-05T09:57:12.087Z,5.7
2023-02-05T10:00:12.201Z,5.9
2023-02-05T10:03:12.010Z,6
2023-02-05T10:06:12.042Z,6.2
2023-02-05T10:09:12.065Z,6.6
2023-02-05T10:12:12.061Z,7.2
2023-02-05T10:15:12.042Z,8
2023-02-05T10:18:12.100Z,8.4
2023-02-05T10:21:12.066Z,8.9
2023-02-05T10:24:12.077Z,8.9
2023-02-05T10:27:12.040Z,9.3
2023-02-05T10:30:12.166Z,9.8
2023-02-05T10:33:12.241Z,10.3
2023-02-05T10:36:12.084Z,10.8
2023-02-05T10:39:11.999Z,11.1
2023-02-05T10:42:12.040Z,11.5
2023-02-05T10:45:12.117Z,11.6
2023-02-05T10:48:12.122Z,11.8
2023-02-05T10:51:12.116Z,11.5
2023-02-05T10:54:12.099Z,11.1
2023-02-05T10:57:12.110Z,10.5
2023-02-05T11:00:12.540Z,10.1
2023-02-05T11:03:12.171Z,9.8
2023-02-05T11:06:12.077Z,9.4
2023-02-05T11:09:12.100Z,9.1
2023-02-05T11:12:12.055Z,8.9
2023-02-05T11:15:12.068Z,8.8
2023-02-05T11:18:12.093Z,8.8
2023-02-05T11:21:12.119Z,8.9
2023-02-05T11:24:12.123Z,9.1
2023-02-05T11:27:12.952Z,9.8
2023-02-05T11:30:12.368Z,10.6
2023-02-05T11:33:12.080Z,11.6
2023-02-05T11:36:12.016Z,12.6
2023-02-05T11:39:11.993Z,13.1
2023-02-05T11:42:11.988Z,13
2023-02-05T11:45:12.046Z,12.6
2023-02-05T11:48:12.003Z,12.5
2023-02-05T11:51:12.021Z,12
2023-02-05T11:54:12.031Z,11.4
2023-02-05T11:57:11.993Z,10.9
2023-02-05T12:00:12.124Z,10.6
2023-02-05T12:03:12.612Z,10.5
2023-02-05T12:06:12.083Z,10.5
2023-02-05T12:09:12.010Z,10.9
2023-02-05T12:12:12.064Z,11.1
2023-02-05T12:15:12.030Z,11.4
2023-02-05T12:18:12.010Z,11.4
2023-02-05T12:21:11.982Z,11.4
2023-02-05T12:24:12.022Z,11.4
2023-02-05T12:27:12.042Z,11.1
2023-02-05T12:30:12.218Z,10.6
2023-02-05T12:33:11.979Z,9.9
2023-02-05T12:36:12.054Z,9.3
2023-02-05T12:39:14.451Z,8.9
2023-02-05T12:42:12.053Z,8.8
2023-02-05T12:45:12.153Z,8.8
2023-02-05T12:48:12.081Z,8.9
2023-02-05T12:51:12.020Z,8.9
2023-02-05T12:54:12.051Z,9.1
2023-02-05T12:57:12.015Z,9.3
2023-02-05T13:00:12.140Z,9.1
2023-02-05T13:03:11.999Z,9
2023-02-05T13:06:12.112Z,9
2023-02-05T13:09:12.075Z,9
2023-02-05T13:12:12.090Z,9.1
2023-02-05T13:15:12.062Z,9.3
2023-02-05T13:18:12.028Z,9.5
2023-02-05T13:21:11.996Z,9.8
2023-02-05T13:24:12.097Z,10
2023-02-05T13:27:12.044Z,10.1
2023-02-05T13:30:13.896Z,10.1
2023-02-05T13:33:11.995Z,10.3
2023-02-05T13:36:12.102Z,10.1
2023-02-05T13:39:12.069Z,10
2023-02-05T13:42:15.033Z,9.9
2023-02-05T13:45:12.030Z,9.9
2023-02-05T13:48:14.780Z,9.9
2023-02-05T13:51:11.982Z,10.1
2023-02-05T13:54:12.065Z,10
2023-02-05T13:57:12.020Z,9.8
2023-02-05T14:00:12.439Z,9.5
2023-02-05T14:03:12.172Z,9.3
2023-02-05T14:06:12.095Z,9.1
2023-02-05T14:09:11.976Z,9
2023-02-05T14:12:12.040Z,9
2023-02-05T14:15:12.016Z,9.3
2023-02-05T14:18:12.064Z,9.1
2023-02-05T14:21:11.989Z,9.1
2023-02-05T14:24:12.030Z,10.6
2023-02-05T14:27:12.116Z,13.5
2023-02-05T14:30:12.157Z,14.9
2023-02-05T14:33:11.979Z,14.9
2023-02-05T14:36:12.014Z,13.8
2023-02-05T14:39:12.091Z,13
2023-02-05T14:42:12.093Z,12.1
2023-02-05T14:45:12.052Z,11.3
2023-02-05T14:48:12.030Z,10.6
2023-02-05T14:51:12.053Z,10.1
2023-02-05T14:54:12.124Z,9.4
2023-02-05T14:57:12.050Z,8.6
2023-02-05T15:00:12.203Z,8
2023-02-05T15:03:12.079Z,7.6
2023-02-05T15:06:12.005Z,7.2
2023-02-05T15:09:13.689Z,6.9
2023-02-05T15:12:12.072Z,6.5
2023-02-05T15:15:14.383Z,6.1
2023-02-05T15:18:12.023Z,5.9
2023-02-05T15:21:12.010Z,5.6
2023-02-05T15:24:11.987Z,5.2
2023-02-05T15:27:12.041Z,4.9
2023-02-05T15:30:12.325Z,4.6
2023-02-05T15:33:12.083Z,4.4
2023-02-05T15:36:13.223Z,4.1
2023-02-05T15:39:12.061Z,3.9
2023-02-05T15:42:12.132Z,3.7
2023-02-05T15:45:11.996Z,3.6
2023-02-05T15:48:12.094Z,3.6
2023-02-05T15:51:12.007Z,3.5
2023-02-05T15:54:12.163Z,3.4
2023-02-05T15:57:12.047Z,3.2
2023-02-05T16:00:12.245Z,3
2023-02-05T16:03:12.555Z,2.9
2023-02-05T16:06:12.015Z,2.7
2023-02-05T16:09:12.207Z,2.6
2023-02-05T16:12:12.046Z,2.5
2023-02-05T16:15:11.966Z,2.2
2023-02-05T16:18:12.056Z,1.9
2023-02-05T16:21:11.978Z,1.6
2023-02-05T16:24:12.026Z,1.4
2023-02-05T16:27:12.004Z,1
2023-02-05T16:30:12.186Z,0.8
2023-02-05T16:33:12.144Z,0.5
2023-02-05T16:36:11.962Z,0.3
2023-02-05T16:39:12.005Z,0
2023-02-05T16:42:11.959Z,-0.1
2023-02-05T16:45:11.970Z,-0.4
2023-02-05T16:48:13.145Z,-0.5
2023-02-05T16:51:11.946Z,-0.6
2023-02-05T16:54:12.015Z,-0.8
2023-02-05T16:57:12.006Z,-0.8
2023-02-05T17:00:12.189Z,-0.8
2023-02-05T17:03:11.956Z,-0.8
2023-02-05T17:06:11.997Z,-0.6
2023-02-05T17:09:11.988Z,-0.5
2023-02-05T17:12:11.920Z,-0.5
2023-02-05T17:15:12.016Z,-0.4
2023-02-05T17:18:11.913Z,-0.3
2023-02-05T17:21:11.941Z,-0.3
2023-02-05T17:24:12.009Z,-0.1
2023-02-05T17:27:12.004Z,0
2023-02-05T17:30:12.039Z,0
2023-02-05T17:33:11.952Z,0.1
2023-02-05T17:36:11.975Z,0.1
2023-02-05T17:39:11.927Z,0.3
2023-02-05T17:42:11.972Z,0.3
2023-02-05T17:45:11.908Z,0.3
2023-02-05T17:48:12.045Z,0.4
2023-02-05T17:51:12.081Z,0.4
2023-02-05T17:54:12.005Z,0.4
2023-02-05T17:57:14.168Z,0.4
2023-02-05T18:00:12.169Z,0.4
2023-02-05T18:03:12.116Z,0.4
2023-02-05T18:06:11.927Z,0.4
2023-02-05T18:09:11.961Z,0.4
2023-02-05T18:12:11.893Z,0.4
2023-02-05T18:15:12.026Z,0.4
2023-02-05T18:18:12.029Z,0.4
2023-02-05T18:21:11.966Z,0.4
2023-02-05T18:24:11.942Z,0.4
2023-02-05T18:27:11.960Z,0.4
2023-02-05T18:30:12.028Z,0.4
2023-02-05T18:33:11.982Z,0.4
2023-02-05T18:36:11.967Z,0.3
2023-02-05T18:39:12.014Z,0.3
2023-02-05T18:42:11.967Z,0.3
2023-02-05T18:45:11.931Z,0.3
2023-02-05T18:48:12.027Z,0.3
2023-02-05T18:51:11.940Z,0.3
2023-02-05T18:54:11.929Z,0.3
2023-02-05T18:57:11.884Z,0.3
2023-02-05T19:00:12.238Z,0.3
2023-02-05T19:03:12.214Z,0.3
2023-02-05T19:06:12.214Z,0.3
2023-02-05T19:09:11.952Z,0.4
2023-02-05T19:12:12.033Z,0.4
2023-02-05T19:15:11.993Z,0.4
2023-02-05T19:18:12.194Z,0.5
2023-02-05T19:21:12.323Z,0.5
2023-02-05T19:24:12.264Z,0.6
2023-02-05T19:27:11.971Z,0.6
2023-02-05T19:30:12.015Z,0.8
2023-02-05T19:33:11.983Z,0.8
2023-02-05T19:36:11.977Z,0.8
2023-02-05T19:39:12.136Z,0.9
2023-02-05T19:42:11.972Z,0.9
2023-02-05T19:45:12.019Z,1
2023-02-05T19:48:11.939Z,1.1
2023-02-05T19:51:12.162Z,1.1
2023-02-05T19:54:11.961Z,1.3
2023-02-05T19:57:12.048Z,1.3
2023-02-05T20:00:12.230Z,1.3
2023-02-05T20:03:11.992Z,1.4
2023-02-05T20:06:11.939Z,1.4
2023-02-05T20:09:11.934Z,1.5
2023-02-05T20:12:13.438Z,1.5
2023-02-05T20:15:12.093Z,1.6
2023-02-05T20:18:11.968Z,1.6
2023-02-05T20:21:12.041Z,1.8
2023-02-05T20:24:11.962Z,1.8
2023-02-05T20:27:12.088Z,1.8
2023-02-05T20:30:11.970Z,1.8
2023-02-05T20:33:11.980Z,1.8
2023-02-05T20:36:11.963Z,1.8
2023-02-05T20:39:11.990Z,1.8
2023-02-05T20:42:12.021Z,1.8
2023-02-05T20:45:11.948Z,1.8
2023-02-05T20:48:11.960Z,1.8
2023-02-05T20:51:11.934Z,1.8
2023-02-05T20:54:12.001Z,1.8
2023-02-05T20:57:11.984Z,1.8
2023-02-05T21:00:12.290Z,1.8
2023-02-05T21:03:11.950Z,1.6
2023-02-05T21:06:12.026Z,1.6
2023-02-05T21:09:12.056Z,1.6
2023-02-05T21:12:11.987Z,1.5
2023-02-05T21:15:11.931Z,1.5
2023-02-05T21:18:12.001Z,1.5
2023-02-05T21:21:11.960Z,1.5
2023-02-05T21:24:11.912Z,1.5
2023-02-05T21:27:12.003Z,1.5
2023-02-05T21:30:11.947Z,1.5
2023-02-05T21:33:11.956Z,1.5
2023-02-05T21:36:11.995Z,1.5
2023-02-05T21:39:11.969Z,1.5
2023-02-05T21:42:11.984Z,1.6
2023-02-05T21:45:12.292Z,1.6
2023-02-05T21:48:11.949Z,1.6
2023-02-05T21:51:11.954Z,1.6
2023-02-05T21:54:11.979Z,1.6
2023-02-05T21:57:12.060Z,1.8
2023-02-05T22:00:12.261Z,1.8
2023-02-05T22:03:11.949Z,1.8
2023-02-05T22:06:12.024Z,1.8
2023-02-05T22:09:11.953Z,1.8
2023-02-05T22:12:12.094Z,1.8
2023-02-05T22:15:11.963Z,1.8
2023-02-05T22:18:12.046Z,1.9
2023-02-05T22:21:11.953Z,1.9
2023-02-05T22:24:13.228Z,1.9
2023-02-05T22:27:12.022Z,1.9
2023-02-05T22:30:12.086Z,1.9
2023-02-05T22:33:11.972Z,1.8
2023-02-05T22:36:12.028Z,1.8
2023-02-05T22:39:11.923Z,1.6
2023-02-05T22:42:11.960Z,1.6
2023-02-05T22:45:12.032Z,1.6
2023-02-05T22:48:11.953Z,1.5
2023-02-05T22:51:12.056Z,1.4
2023-02-05T22:54:11.981Z,1.1
2023-02-05T22:57:11.982Z,1
2023-02-05T23:00:12.703Z,1
2023-02-05T23:03:12.164Z,1
2023-02-05T23:06:11.991Z,1.1
2023-02-05T23:09:12.007Z,1.1
2023-02-05T23:12:11.975Z,1.3
2023-02-05T23:15:11.974Z,1.4
2023-02-05T23:18:11.988Z,1.4
2023-02-05T23:21:12.018Z,1.6
2023-02-05T23:24:11.974Z,1.8
2023-02-05T23:27:11.970Z,1.8
2023-02-05T23:30:12.042Z,1.9
2023-02-05T23:33:11.994Z,2
2023-02-05T23:36:11.933Z,2
2023-02-05T23:39:11.943Z,2
2023-02-05T23:42:11.980Z,2.1
2023-02-05T23:45:11.949Z,2.1
2023-02-05T23:48:11.977Z,2.1
2023-02-05T23:51:11.958Z,2.2
2023-02-05T23:54:12.023Z,2.2
2023-02-05T23:57:11.942Z,2.2
